sensor_id;sensor_type;location;lat;lon;timestamp;temperature;humidity
4052;DHT22;2040;50.924;11.604;2023-04-25T00:02:00;6.20;99.90
4052;DHT22;2040;50.924;11.604;2023-04-25T00:04:25;6.10;99.90
4052;DHT22;2040;50.924;11.604;2023-04-25T00:06:53;6.10;99.90
4052;DHT22;2040;50.924;11.604;2023-04-25T00:09:19;6.10;99.90
4052;DHT22;2040;50.924;11.604;2023-04-25T00:11:45;6.10;99.90
4052;DHT22;2040;50.924;11.604;2023-04-25T00:14:10;6.10;99.90
4052;DHT22;2040;50.924;11.604;2023-04-25T00:16:36;6.00;99.90
4052;DHT22;2040;50.924;11.604;2023-04-25T00:19:02;6.00;99.90
4052;DHT22;2040;50.924;11.604;2023-04-25T00:21:28;6.00;99.90
4052;DHT22;2040;50.924;11.604;2023-04-25T00:23:54;6.10;99.90
4052;DHT22;2040;50.924;11.604;2023-04-25T00:26:20;6.00;99.90
4052;DHT22;2040;50.924;11.604;2023-04-25T00:28:48;6.00;99.90
4052;DHT22;2040;50.924;11.604;2023-04-25T00:31:14;6.00;99.90
4052;DHT22;2040;50.924;11.604;2023-04-25T00:33:39;5.90;99.90
4052;DHT22;2040;50.924;11.604;2023-04-25T00:36:06;5.90;99.90
4052;DHT22;2040;50.924;11.604;2023-04-25T00:38:31;5.80;99.90
4052;DHT22;2040;50.924;11.604;2023-04-25T00:40:57;5.80;99.90
4052;DHT22;2040;50.924;11.604;2023-04-25T00:43:26;5.70;99.90
4052;DHT22;2040;50.924;11.604;2023-04-25T00:45:52;5.70;99.90
4052;DHT22;2040;50.924;11.604;2023-04-25T00:48:19;5.70;99.90
4052;DHT22;2040;50.924;11.604;2023-04-25T00:50:52;5.80;99.90
4052;DHT22;2040;50.924;11.604;2023-04-25T00:53:18;5.90;99.90
4052;DHT22;2040;50.924;11.604;2023-04-25T00:55:45;5.80;99.90
4052;DHT22;2040;50.924;11.604;2023-04-25T00:58:10;5.80;99.90
4052;DHT22;2040;50.924;11.604;2023-04-25T01:00:36;5.80;99.90
4052;DHT22;2040;50.924;11.604;2023-04-25T01:03:03;5.70;99.90
4052;DHT22;2040;50.924;11.604;2023-04-25T01:05:29;5.70;99.90
4052;DHT22;2040;50.924;11.604;2023-04-25T01:07:55;5.70;99.90
4052;DHT22;2040;50.924;11.604;2023-04-25T01:10:21;5.70;99.90
4052;DHT22;2040;50.924;11.604;2023-04-25T01:12:47;5.80;99.90
4052;DHT22;2040;50.924;11.604;2023-04-25T01:15:12;5.70;99.90
4052;DHT22;2040;50.924;11.604;2023-04-25T01:17:38;5.70;99.90
4052;DHT22;2040;50.924;11.604;2023-04-25T01:20:06;5.70;99.90
4052;DHT22;2040;50.924;11.604;2023-04-25T01:22:33;5.60;99.90
4052;DHT22;2040;50.924;11.604;2023-04-25T01:24:59;5.50;99.90
4052;DHT22;2040;50.924;11.604;2023-04-25T01:27:25;5.70;99.90
4052;DHT22;2040;50.924;11.604;2023-04-25T01:29:51;5.60;99.90
4052;DHT22;2040;50.924;11.604;2023-04-25T01:32:19;5.60;99.90
4052;DHT22;2040;50.924;11.604;2023-04-25T01:34:44;5.60;99.90
4052;DHT22;2040;50.924;11.604;2023-04-25T01:37:10;5.60;99.90
4052;DHT22;2040;50.924;11.604;2023-04-25T01:39:36;5.60;99.90
4052;DHT22;2040;50.924;11.604;2023-04-25T01:42:01;5.70;99.90
4052;DHT22;2040;50.924;11.604;2023-04-25T01:44:27;5.60;99.90
4052;DHT22;2040;50.924;11.604;2023-04-25T01:46:53;5.60;99.90
4052;DHT22;2040;50.924;11.604;2023-04-25T01:49:19;5.60;99.90
4052;DHT22;2040;50.924;11.604;2023-04-25T01:51:44;5.60;99.90
4052;DHT22;2040;50.924;11.604;2023-04-25T01:54:10;5.60;99.90
4052;DHT22;2040;50.924;11.604;2023-04-25T01:56:37;5.60;99.90
4052;DHT22;2040;50.924;11.604;2023-04-25T01:59:04;5.70;99.90
4052;DHT22;2040;50.924;11.604;2023-04-25T02:01:30;5.70;99.90
4052;DHT22;2040;50.924;11.604;2023-04-25T02:03:55;5.70;99.90
4052;DHT22;2040;50.924;11.604;2023-04-25T02:06:21;5.60;99.90
4052;DHT22;2040;50.924;11.604;2023-04-25T02:08:47;5.60;99.90
4052;DHT22;2040;50.924;11.604;2023-04-25T02:11:12;5.50;99.90
4052;DHT22;2040;50.924;11.604;2023-04-25T02:13:38;5.50;99.90
4052;DHT22;2040;50.924;11.604;2023-04-25T02:16:04;5.50;99.90
4052;DHT22;2040;50.924;11.604;2023-04-25T02:18:29;5.50;99.90
4052;DHT22;2040;50.924;11.604;2023-04-25T02:20:57;5.50;99.90
4052;DHT22;2040;50.924;11.604;2023-04-25T02:23:23;5.50;99.90
4052;DHT22;2040;50.924;11.604;2023-04-25T02:25:48;5.40;99.90
4052;DHT22;2040;50.924;11.604;2023-04-25T02:28:14;5.40;99.90
4052;DHT22;2040;50.924;11.604;2023-04-25T02:30:40;5.40;99.90
4052;DHT22;2040;50.924;11.604;2023-04-25T02:33:05;5.40;99.90
4052;DHT22;2040;50.924;11.604;2023-04-25T02:35:31;5.40;99.90
4052;DHT22;2040;50.924;11.604;2023-04-25T02:52:49;6.10;99.90
4052;DHT22;2040;50.924;11.604;2023-04-25T02:55:15;6.10;99.90
4052;DHT22;2040;50.924;11.604;2023-04-25T02:57:40;5.80;99.90
4052;DHT22;2040;50.924;11.604;2023-04-25T03:00:06;5.60;99.90
4052;DHT22;2040;50.924;11.604;2023-04-25T03:02:32;5.50;99.90
4052;DHT22;2040;50.924;11.604;2023-04-25T03:04:58;5.40;99.90
4052;DHT22;2040;50.924;11.604;2023-04-25T03:07:23;5.20;99.90
4052;DHT22;2040;50.924;11.604;2023-04-25T03:09:49;5.30;99.90
4052;DHT22;2040;50.924;11.604;2023-04-25T03:12:15;5.30;99.90
4052;DHT22;2040;50.924;11.604;2023-04-25T03:14:40;5.50;99.90
4052;DHT22;2040;50.924;11.604;2023-04-25T03:17:06;5.70;99.90
4052;DHT22;2040;50.924;11.604;2023-04-25T03:19:32;5.70;99.90
4052;DHT22;2040;50.924;11.604;2023-04-25T03:21:57;5.80;99.90
4052;DHT22;2040;50.924;11.604;2023-04-25T03:24:23;5.90;99.90
4052;DHT22;2040;50.924;11.604;2023-04-25T03:26:48;5.80;99.90
4052;DHT22;2040;50.924;11.604;2023-04-25T03:29:14;5.70;99.90
4052;DHT22;2040;50.924;11.604;2023-04-25T03:31:39;5.90;99.90
4052;DHT22;2040;50.924;11.604;2023-04-25T03:34:05;6.10;99.90
4052;DHT22;2040;50.924;11.604;2023-04-25T03:36:30;6.30;99.90
4052;DHT22;2040;50.924;11.604;2023-04-25T03:38:56;6.30;99.90
4052;DHT22;2040;50.924;11.604;2023-04-25T03:41:21;6.40;99.90
4052;DHT22;2040;50.924;11.604;2023-04-25T03:43:47;6.40;99.90
4052;DHT22;2040;50.924;11.604;2023-04-25T03:46:13;6.40;99.90
4052;DHT22;2040;50.924;11.604;2023-04-25T03:48:38;6.40;99.90
4052;DHT22;2040;50.924;11.604;2023-04-25T03:51:04;6.50;99.90
4052;DHT22;2040;50.924;11.604;2023-04-25T03:53:29;6.60;99.90
4052;DHT22;2040;50.924;11.604;2023-04-25T03:55:55;6.50;99.90
4052;DHT22;2040;50.924;11.604;2023-04-25T03:58:20;6.60;99.90
4052;DHT22;2040;50.924;11.604;2023-04-25T04:00:48;6.70;99.90
4052;DHT22;2040;50.924;11.604;2023-04-25T04:03:13;6.60;99.90
4052;DHT22;2040;50.924;11.604;2023-04-25T04:05:39;6.50;99.90
4052;DHT22;2040;50.924;11.604;2023-04-25T04:08:06;6.40;99.90
4052;DHT22;2040;50.924;11.604;2023-04-25T04:10:31;6.40;99.90
4052;DHT22;2040;50.924;11.604;2023-04-25T04:12:57;6.40;99.90
4052;DHT22;2040;50.924;11.604;2023-04-25T04:15:22;6.30;99.90
4052;DHT22;2040;50.924;11.604;2023-04-25T04:17:48;6.30;99.90
4052;DHT22;2040;50.924;11.604;2023-04-25T04:20:14;6.20;99.90
4052;DHT22;2040;50.924;11.604;2023-04-25T04:22:39;6.10;99.90
4052;DHT22;2040;50.924;11.604;2023-04-25T04:25:05;6.00;99.90
4052;DHT22;2040;50.924;11.604;2023-04-25T04:27:32;5.90;99.90
4052;DHT22;2040;50.924;11.604;2023-04-25T04:29:58;5.80;99.90
4052;DHT22;2040;50.924;11.604;2023-04-25T04:32:23;5.80;99.90
4052;DHT22;2040;50.924;11.604;2023-04-25T04:34:49;5.90;99.90
4052;DHT22;2040;50.924;11.604;2023-04-25T04:37:15;5.80;99.90
4052;DHT22;2040;50.924;11.604;2023-04-25T04:39:40;5.80;99.90
4052;DHT22;2040;50.924;11.604;2023-04-25T04:42:06;5.80;99.90
4052;DHT22;2040;50.924;11.604;2023-04-25T04:44:32;5.70;99.90
4052;DHT22;2040;50.924;11.604;2023-04-25T04:46:58;5.60;99.90
4052;DHT22;2040;50.924;11.604;2023-04-25T04:49:24;5.60;99.90
4052;DHT22;2040;50.924;11.604;2023-04-25T04:51:49;5.60;99.90
4052;DHT22;2040;50.924;11.604;2023-04-25T04:54:15;5.50;99.90
4052;DHT22;2040;50.924;11.604;2023-04-25T04:56:40;5.50;99.90
4052;DHT22;2040;50.924;11.604;2023-04-25T04:59:07;5.50;99.90
4052;DHT22;2040;50.924;11.604;2023-04-25T05:01:33;5.40;99.90
4052;DHT22;2040;50.924;11.604;2023-04-25T05:04:00;5.50;99.90
4052;DHT22;2040;50.924;11.604;2023-04-25T05:06:29;5.40;99.90
4052;DHT22;2040;50.924;11.604;2023-04-25T05:08:56;5.40;99.90
4052;DHT22;2040;50.924;11.604;2023-04-25T05:11:22;5.50;99.90
4052;DHT22;2040;50.924;11.604;2023-04-25T05:13:49;5.50;99.90
4052;DHT22;2040;50.924;11.604;2023-04-25T05:16:15;5.50;99.90
4052;DHT22;2040;50.924;11.604;2023-04-25T05:18:40;5.40;99.90
4052;DHT22;2040;50.924;11.604;2023-04-25T05:21:06;5.40;99.90
4052;DHT22;2040;50.924;11.604;2023-04-25T05:23:32;5.50;99.90
4052;DHT22;2040;50.924;11.604;2023-04-25T05:25:58;5.60;99.90
4052;DHT22;2040;50.924;11.604;2023-04-25T05:28:24;5.60;99.90
4052;DHT22;2040;50.924;11.604;2023-04-25T05:30:50;5.50;99.90
4052;DHT22;2040;50.924;11.604;2023-04-25T05:33:16;5.50;99.90
4052;DHT22;2040;50.924;11.604;2023-04-25T05:35:42;5.50;99.90
4052;DHT22;2040;50.924;11.604;2023-04-25T05:38:07;5.40;99.90
4052;DHT22;2040;50.924;11.604;2023-04-25T05:40:33;5.50;99.90
4052;DHT22;2040;50.924;11.604;2023-04-25T05:42:59;5.60;99.90
4052;DHT22;2040;50.924;11.604;2023-04-25T05:45:24;5.50;99.90
4052;DHT22;2040;50.924;11.604;2023-04-25T05:47:50;5.60;99.90
4052;DHT22;2040;50.924;11.604;2023-04-25T05:50:15;5.60;99.90
4052;DHT22;2040;50.924;11.604;2023-04-25T06:03:57;6.40;99.90
4052;DHT22;2040;50.924;11.604;2023-04-25T06:06:22;6.60;99.90
4052;DHT22;2040;50.924;11.604;2023-04-25T06:08:48;6.80;99.90
4052;DHT22;2040;50.924;11.604;2023-04-25T06:11:14;7.00;99.90
4052;DHT22;2040;50.924;11.604;2023-04-25T06:13:39;7.20;99.90
4052;DHT22;2040;50.924;11.604;2023-04-25T06:16:05;7.20;99.90
4052;DHT22;2040;50.924;11.604;2023-04-25T06:18:31;7.30;99.90
4052;DHT22;2040;50.924;11.604;2023-04-25T06:20:56;7.20;99.90
4052;DHT22;2040;50.924;11.604;2023-04-25T06:23:22;7.10;99.90
4052;DHT22;2040;50.924;11.604;2023-04-25T06:25:47;7.00;99.90
4052;DHT22;2040;50.924;11.604;2023-04-25T06:28:13;7.10;99.90
4052;DHT22;2040;50.924;11.604;2023-04-25T06:30:38;7.10;99.90
4052;DHT22;2040;50.924;11.604;2023-04-25T06:33:04;7.20;99.90
4052;DHT22;2040;50.924;11.604;2023-04-25T06:35:30;7.40;99.90
4052;DHT22;2040;50.924;11.604;2023-04-25T06:37:55;7.40;99.90
4052;DHT22;2040;50.924;11.604;2023-04-25T06:40:21;7.50;99.90
4052;DHT22;2040;50.924;11.604;2023-04-25T06:42:46;7.60;99.90
4052;DHT22;2040;50.924;11.604;2023-04-25T06:45:12;7.60;99.90
4052;DHT22;2040;50.924;11.604;2023-04-25T06:47:38;7.40;99.90
4052;DHT22;2040;50.924;11.604;2023-04-25T06:50:04;7.40;99.90
4052;DHT22;2040;50.924;11.604;2023-04-25T06:52:30;7.30;99.90
4052;DHT22;2040;50.924;11.604;2023-04-25T06:54:55;7.30;99.90
4052;DHT22;2040;50.924;11.604;2023-04-25T06:57:21;7.20;99.90
4052;DHT22;2040;50.924;11.604;2023-04-25T06:59:46;7.20;99.90
4052;DHT22;2040;50.924;11.604;2023-04-25T07:02:12;7.20;99.90
4052;DHT22;2040;50.924;11.604;2023-04-25T07:04:38;7.20;99.90
4052;DHT22;2040;50.924;11.604;2023-04-25T07:07:03;7.20;99.90
4052;DHT22;2040;50.924;11.604;2023-04-25T07:09:29;7.30;99.90
4052;DHT22;2040;50.924;11.604;2023-04-25T07:11:55;7.30;99.90
4052;DHT22;2040;50.924;11.604;2023-04-25T07:14:21;7.20;99.90
4052;DHT22;2040;50.924;11.604;2023-04-25T07:16:47;7.10;99.90
4052;DHT22;2040;50.924;11.604;2023-04-25T07:19:13;7.10;99.90
4052;DHT22;2040;50.924;11.604;2023-04-25T07:21:38;7.10;99.90
4052;DHT22;2040;50.924;11.604;2023-04-25T07:24:04;7.20;99.90
4052;DHT22;2040;50.924;11.604;2023-04-25T07:26:30;7.10;99.90
4052;DHT22;2040;50.924;11.604;2023-04-25T07:28:55;7.10;99.90
4052;DHT22;2040;50.924;11.604;2023-04-25T07:31:22;7.10;99.90
4052;DHT22;2040;50.924;11.604;2023-04-25T07:33:48;7.20;99.90
4052;DHT22;2040;50.924;11.604;2023-04-25T07:36:13;7.20;99.90
4052;DHT22;2040;50.924;11.604;2023-04-25T07:38:40;7.10;99.90
4052;DHT22;2040;50.924;11.604;2023-04-25T07:41:06;7.10;99.90
4052;DHT22;2040;50.924;11.604;2023-04-25T07:43:31;7.10;99.90
4052;DHT22;2040;50.924;11.604;2023-04-25T07:45:57;7.20;99.90
4052;DHT22;2040;50.924;11.604;2023-04-25T07:48:23;7.20;99.90
4052;DHT22;2040;50.924;11.604;2023-04-25T07:50:48;7.30;99.90
4052;DHT22;2040;50.924;11.604;2023-04-25T07:53:14;7.20;99.90
4052;DHT22;2040;50.924;11.604;2023-04-25T07:55:40;7.20;99.90
4052;DHT22;2040;50.924;11.604;2023-04-25T07:58:09;7.20;99.90
4052;DHT22;2040;50.924;11.604;2023-04-25T08:00:35;7.20;99.90
4052;DHT22;2040;50.924;11.604;2023-04-25T08:03:01;7.30;99.90
4052;DHT22;2040;50.924;11.604;2023-04-25T08:05:28;7.20;99.90
4052;DHT22;2040;50.924;11.604;2023-04-25T08:07:53;7.40;99.90
4052;DHT22;2040;50.924;11.604;2023-04-25T08:10:19;7.40;99.90
4052;DHT22;2040;50.924;11.604;2023-04-25T08:12:45;7.50;99.90
4052;DHT22;2040;50.924;11.604;2023-04-25T08:15:11;7.50;99.90
4052;DHT22;2040;50.924;11.604;2023-04-25T08:17:39;7.60;99.90
4052;DHT22;2040;50.924;11.604;2023-04-25T08:20:05;7.60;99.90
4052;DHT22;2040;50.924;11.604;2023-04-25T08:22:33;7.80;99.90
4052;DHT22;2040;50.924;11.604;2023-04-25T08:24:59;7.70;99.90
4052;DHT22;2040;50.924;11.604;2023-04-25T08:27:25;7.70;99.90
4052;DHT22;2040;50.924;11.604;2023-04-25T08:29:50;7.60;99.90
4052;DHT22;2040;50.924;11.604;2023-04-25T08:32:16;7.50;99.90
4052;DHT22;2040;50.924;11.604;2023-04-25T08:34:42;7.40;99.90
4052;DHT22;2040;50.924;11.604;2023-04-25T08:37:09;7.40;99.90
4052;DHT22;2040;50.924;11.604;2023-04-25T08:39:36;7.30;99.90
4052;DHT22;2040;50.924;11.604;2023-04-25T08:42:05;7.30;99.90
4052;DHT22;2040;50.924;11.604;2023-04-25T08:44:33;7.40;99.90
4052;DHT22;2040;50.924;11.604;2023-04-25T08:47:02;7.40;99.90
4052;DHT22;2040;50.924;11.604;2023-04-25T08:49:28;7.50;99.90
4052;DHT22;2040;50.924;11.604;2023-04-25T08:51:59;7.60;99.90
4052;DHT22;2040;50.924;11.604;2023-04-25T08:54:29;7.40;99.90
4052;DHT22;2040;50.924;11.604;2023-04-25T08:56:57;7.30;99.90
4052;DHT22;2040;50.924;11.604;2023-04-25T08:59:27;7.30;99.90
4052;DHT22;2040;50.924;11.604;2023-04-25T09:01:53;7.30;99.90
4052;DHT22;2040;50.924;11.604;2023-04-25T09:04:20;7.30;99.90
4052;DHT22;2040;50.924;11.604;2023-04-25T09:06:48;7.30;99.90
4052;DHT22;2040;50.924;11.604;2023-04-25T09:09:14;7.20;99.90
4052;DHT22;2040;50.924;11.604;2023-04-25T09:11:40;7.30;99.90
4052;DHT22;2040;50.924;11.604;2023-04-25T09:14:14;7.30;99.90
4052;DHT22;2040;50.924;11.604;2023-04-25T09:19:24;7.40;99.90
4052;DHT22;2040;50.924;11.604;2023-04-25T09:21:51;7.60;99.90
4052;DHT22;2040;50.924;11.604;2023-04-25T09:24:38;7.80;99.90
4052;DHT22;2040;50.924;11.604;2023-04-25T09:27:08;8.00;99.90
4052;DHT22;2040;50.924;11.604;2023-04-25T09:29:36;8.00;99.90
4052;DHT22;2040;50.924;11.604;2023-04-25T09:32:19;7.90;99.90
4052;DHT22;2040;50.924;11.604;2023-04-25T09:34:50;7.90;99.90
4052;DHT22;2040;50.924;11.604;2023-04-25T09:37:21;7.90;99.90
4052;DHT22;2040;50.924;11.604;2023-04-25T09:39:57;8.10;99.90
4052;DHT22;2040;50.924;11.604;2023-04-25T09:42:30;8.30;99.90
4052;DHT22;2040;50.924;11.604;2023-04-25T09:44:58;8.70;99.90
4052;DHT22;2040;50.924;11.604;2023-04-25T09:47:25;8.90;99.90
4052;DHT22;2040;50.924;11.604;2023-04-25T09:49:52;9.00;99.90
4052;DHT22;2040;50.924;11.604;2023-04-25T09:52:23;8.90;99.90
4052;DHT22;2040;50.924;11.604;2023-04-25T09:54:50;8.90;99.90
4052;DHT22;2040;50.924;11.604;2023-04-25T09:57:19;9.00;99.90
4052;DHT22;2040;50.924;11.604;2023-04-25T09:59:53;8.90;99.90
4052;DHT22;2040;50.924;11.604;2023-04-25T10:02:27;8.70;99.90
4052;DHT22;2040;50.924;11.604;2023-04-25T10:04:55;8.60;99.90
4052;DHT22;2040;50.924;11.604;2023-04-25T10:07:30;8.50;99.90
4052;DHT22;2040;50.924;11.604;2023-04-25T10:10:00;8.40;99.90
4052;DHT22;2040;50.924;11.604;2023-04-25T10:12:28;8.00;99.90
4052;DHT22;2040;50.924;11.604;2023-04-25T10:14:54;7.80;99.90
4052;DHT22;2040;50.924;11.604;2023-04-25T10:17:20;7.70;99.90
4052;DHT22;2040;50.924;11.604;2023-04-25T10:19:47;7.70;99.90
4052;DHT22;2040;50.924;11.604;2023-04-25T10:22:20;7.60;99.90
4052;DHT22;2040;50.924;11.604;2023-04-25T10:24:48;7.50;99.90
4052;DHT22;2040;50.924;11.604;2023-04-25T10:27:15;7.50;99.90
4052;DHT22;2040;50.924;11.604;2023-04-25T10:29:41;7.60;99.90
4052;DHT22;2040;50.924;11.604;2023-04-25T10:32:08;7.60;99.90
4052;DHT22;2040;50.924;11.604;2023-04-25T10:34:44;7.70;99.90
4052;DHT22;2040;50.924;11.604;2023-04-25T10:37:14;7.90;99.90
4052;DHT22;2040;50.924;11.604;2023-04-25T10:39:40;8.00;99.90
4052;DHT22;2040;50.924;11.604;2023-04-25T10:42:09;8.10;99.90
4052;DHT22;2040;50.924;11.604;2023-04-25T10:44:37;8.20;99.90
4052;DHT22;2040;50.924;11.604;2023-04-25T10:47:03;8.30;99.90
4052;DHT22;2040;50.924;11.604;2023-04-25T10:49:34;8.50;99.90
4052;DHT22;2040;50.924;11.604;2023-04-25T10:52:13;8.50;99.90
4052;DHT22;2040;50.924;11.604;2023-04-25T10:54:41;8.70;99.90
4052;DHT22;2040;50.924;11.604;2023-04-25T10:57:07;8.70;99.90
4052;DHT22;2040;50.924;11.604;2023-04-25T10:59:33;8.80;99.90
4052;DHT22;2040;50.924;11.604;2023-04-25T11:01:58;8.80;99.90
4052;DHT22;2040;50.924;11.604;2023-04-25T11:04:32;8.80;99.90
4052;DHT22;2040;50.924;11.604;2023-04-25T11:07:12;8.70;99.90
4052;DHT22;2040;50.924;11.604;2023-04-25T11:09:40;8.70;99.90
4052;DHT22;2040;50.924;11.604;2023-04-25T11:12:08;9.10;99.90
4052;DHT22;2040;50.924;11.604;2023-04-25T11:14:33;9.20;99.90
4052;DHT22;2040;50.924;11.604;2023-04-25T11:17:00;9.40;99.90
4052;DHT22;2040;50.924;11.604;2023-04-25T11:19:29;9.30;99.90
4052;DHT22;2040;50.924;11.604;2023-04-25T11:21:55;9.30;99.90
4052;DHT22;2040;50.924;11.604;2023-04-25T11:24:35;9.30;99.90
4052;DHT22;2040;50.924;11.604;2023-04-25T11:27:01;9.50;99.90
4052;DHT22;2040;50.924;11.604;2023-04-25T11:29:28;9.70;99.90
4052;DHT22;2040;50.924;11.604;2023-04-25T11:31:55;9.30;99.90
4052;DHT22;2040;50.924;11.604;2023-04-25T11:34:24;9.30;99.90
4052;DHT22;2040;50.924;11.604;2023-04-25T11:36:51;9.20;99.90
4052;DHT22;2040;50.924;11.604;2023-04-25T11:39:18;9.10;99.90
4052;DHT22;2040;50.924;11.604;2023-04-25T11:41:43;8.90;99.90
4052;DHT22;2040;50.924;11.604;2023-04-25T11:44:09;8.90;99.90
4052;DHT22;2040;50.924;11.604;2023-04-25T11:46:35;8.80;99.90
4052;DHT22;2040;50.924;11.604;2023-04-25T11:49:00;8.70;99.90
4052;DHT22;2040;50.924;11.604;2023-04-25T11:51:26;8.80;99.90
4052;DHT22;2040;50.924;11.604;2023-04-25T11:53:52;9.00;99.90
4052;DHT22;2040;50.924;11.604;2023-04-25T11:56:18;9.00;99.90
4052;DHT22;2040;50.924;11.604;2023-04-25T11:58:57;9.20;99.90
4052;DHT22;2040;50.924;11.604;2023-04-25T12:01:49;9.10;99.90
4052;DHT22;2040;50.924;11.604;2023-04-25T12:04:22;9.30;99.90
4052;DHT22;2040;50.924;11.604;2023-04-25T12:06:49;9.50;99.90
4052;DHT22;2040;50.924;11.604;2023-04-25T12:09:32;9.70;99.90
4052;DHT22;2040;50.924;11.604;2023-04-25T12:11:59;10.10;99.90
4052;DHT22;2040;50.924;11.604;2023-04-25T12:14:29;10.30;99.90
4052;DHT22;2040;50.924;11.604;2023-04-25T12:16:57;10.60;99.90
4052;DHT22;2040;50.924;11.604;2023-04-25T12:19:23;10.40;99.90
4052;DHT22;2040;50.924;11.604;2023-04-25T12:21:50;10.40;99.90
4052;DHT22;2040;50.924;11.604;2023-04-25T12:24:23;10.40;99.90
4052;DHT22;2040;50.924;11.604;2023-04-25T12:27:03;10.40;99.90
4052;DHT22;2040;50.924;11.604;2023-04-25T12:29:30;10.40;99.90
4052;DHT22;2040;50.924;11.604;2023-04-25T12:31:57;10.70;99.90
4052;DHT22;2040;50.924;11.604;2023-04-25T12:34:23;11.30;99.90
4052;DHT22;2040;50.924;11.604;2023-04-25T12:36:49;12.20;99.90
4052;DHT22;2040;50.924;11.604;2023-04-25T12:39:17;12.30;99.90
4052;DHT22;2040;50.924;11.604;2023-04-25T12:41:43;11.50;99.90
4052;DHT22;2040;50.924;11.604;2023-04-25T12:44:09;11.10;99.90
4052;DHT22;2040;50.924;11.604;2023-04-25T12:46:35;10.80;99.90
4052;DHT22;2040;50.924;11.604;2023-04-25T12:49:01;10.50;99.90
4052;DHT22;2040;50.924;11.604;2023-04-25T12:51:28;9.90;99.90
4052;DHT22;2040;50.924;11.604;2023-04-25T12:53:54;9.50;99.90
4052;DHT22;2040;50.924;11.604;2023-04-25T12:56:20;9.10;99.90
4052;DHT22;2040;50.924;11.604;2023-04-25T12:58:45;8.80;99.90
4052;DHT22;2040;50.924;11.604;2023-04-25T13:01:12;8.70;99.90
4052;DHT22;2040;50.924;11.604;2023-04-25T13:03:39;8.70;99.90
4052;DHT22;2040;50.924;11.604;2023-04-25T13:06:06;8.90;99.90
4052;DHT22;2040;50.924;11.604;2023-04-25T13:08:32;9.00;99.90
4052;DHT22;2040;50.924;11.604;2023-04-25T13:10:57;9.20;99.90
4052;DHT22;2040;50.924;11.604;2023-04-25T13:13:23;9.80;99.90
4052;DHT22;2040;50.924;11.604;2023-04-25T13:15:49;10.30;99.90
4052;DHT22;2040;50.924;11.604;2023-04-25T13:18:15;10.20;99.90
4052;DHT22;2040;50.924;11.604;2023-04-25T13:20:40;10.00;99.90
4052;DHT22;2040;50.924;11.604;2023-04-25T13:23:06;9.80;99.90
4052;DHT22;2040;50.924;11.604;2023-04-25T13:25:31;9.60;99.90
4052;DHT22;2040;50.924;11.604;2023-04-25T13:27:57;9.50;99.90
4052;DHT22;2040;50.924;11.604;2023-04-25T13:30:22;9.40;99.90
4052;DHT22;2040;50.924;11.604;2023-04-25T13:32:48;9.40;99.90
4052;DHT22;2040;50.924;11.604;2023-04-25T13:35:14;9.40;99.90
4052;DHT22;2040;50.924;11.604;2023-04-25T13:37:40;9.90;99.90
4052;DHT22;2040;50.924;11.604;2023-04-25T13:40:10;10.20;99.90
4052;DHT22;2040;50.924;11.604;2023-04-25T13:42:37;10.10;99.90
4052;DHT22;2040;50.924;11.604;2023-04-25T13:45:03;10.30;99.90
4052;DHT22;2040;50.924;11.604;2023-04-25T13:47:29;10.20;99.90
4052;DHT22;2040;50.924;11.604;2023-04-25T13:49:55;10.60;99.90
4052;DHT22;2040;50.924;11.604;2023-04-25T13:52:23;10.80;99.90
4052;DHT22;2040;50.924;11.604;2023-04-25T13:54:52;10.70;99.90
4052;DHT22;2040;50.924;11.604;2023-04-25T13:57:18;10.90;99.90
4052;DHT22;2040;50.924;11.604;2023-04-25T13:59:43;10.90;99.90
4052;DHT22;2040;50.924;11.604;2023-04-25T14:02:09;10.50;99.90
4052;DHT22;2040;50.924;11.604;2023-04-25T14:04:35;10.60;99.90
4052;DHT22;2040;50.924;11.604;2023-04-25T14:07:00;10.50;99.90
4052;DHT22;2040;50.924;11.604;2023-04-25T14:09:27;10.50;99.90
4052;DHT22;2040;50.924;11.604;2023-04-25T14:11:53;10.40;99.90
4052;DHT22;2040;50.924;11.604;2023-04-25T14:14:19;10.30;99.90
4052;DHT22;2040;50.924;11.604;2023-04-25T14:16:46;10.00;99.90
4052;DHT22;2040;50.924;11.604;2023-04-25T14:19:14;10.00;99.90
4052;DHT22;2040;50.924;11.604;2023-04-25T14:21:40;10.10;99.90
4052;DHT22;2040;50.924;11.604;2023-04-25T14:24:06;10.20;99.90
4052;DHT22;2040;50.924;11.604;2023-04-25T14:26:33;10.00;99.90
4052;DHT22;2040;50.924;11.604;2023-04-25T14:28:59;9.90;99.90
4052;DHT22;2040;50.924;11.604;2023-04-25T14:31:24;9.80;99.90
4052;DHT22;2040;50.924;11.604;2023-04-25T14:33:50;10.00;99.90
4052;DHT22;2040;50.924;11.604;2023-04-25T14:36:16;10.10;99.90
4052;DHT22;2040;50.924;11.604;2023-04-25T14:38:42;10.20;99.90
4052;DHT22;2040;50.924;11.604;2023-04-25T14:41:09;10.10;99.90
4052;DHT22;2040;50.924;11.604;2023-04-25T14:43:36;10.20;99.90
4052;DHT22;2040;50.924;11.604;2023-04-25T14:46:02;10.30;99.90
4052;DHT22;2040;50.924;11.604;2023-04-25T14:48:29;10.30;99.90
4052;DHT22;2040;50.924;11.604;2023-04-25T14:50:54;10.50;99.90
4052;DHT22;2040;50.924;11.604;2023-04-25T14:53:22;10.20;99.90
4052;DHT22;2040;50.924;11.604;2023-04-25T14:55:47;10.20;99.90
4052;DHT22;2040;50.924;11.604;2023-04-25T14:58:14;10.30;99.90
4052;DHT22;2040;50.924;11.604;2023-04-25T15:00:39;10.30;99.90
4052;DHT22;2040;50.924;11.604;2023-04-25T15:03:06;10.30;99.90
4052;DHT22;2040;50.924;11.604;2023-04-25T15:05:33;10.10;99.90
4052;DHT22;2040;50.924;11.604;2023-04-25T15:07:59;10.00;99.90
4052;DHT22;2040;50.924;11.604;2023-04-25T15:10:25;9.90;99.90
4052;DHT22;2040;50.924;11.604;2023-04-25T15:13:01;9.90;99.90
4052;DHT22;2040;50.924;11.604;2023-04-25T15:15:27;9.90;99.90
4052;DHT22;2040;50.924;11.604;2023-04-25T15:17:53;9.80;99.90
4052;DHT22;2040;50.924;11.604;2023-04-25T15:20:20;9.60;99.90
4052;DHT22;2040;50.924;11.604;2023-04-25T15:22:46;9.50;99.90
4052;DHT22;2040;50.924;11.604;2023-04-25T15:25:14;9.40;99.90
4052;DHT22;2040;50.924;11.604;2023-04-25T15:27:41;9.30;99.90
4052;DHT22;2040;50.924;11.604;2023-04-25T15:30:10;9.20;99.90
4052;DHT22;2040;50.924;11.604;2023-04-25T15:32:38;9.20;99.90
4052;DHT22;2040;50.924;11.604;2023-04-25T15:35:04;9.30;99.90
4052;DHT22;2040;50.924;11.604;2023-04-25T15:37:31;9.50;99.90
4052;DHT22;2040;50.924;11.604;2023-04-25T15:40:05;10.10;99.90
4052;DHT22;2040;50.924;11.604;2023-04-25T15:42:38;10.60;99.90
4052;DHT22;2040;50.924;11.604;2023-04-25T15:45:05;10.60;99.90
4052;DHT22;2040;50.924;11.604;2023-04-25T15:47:31;10.40;99.90
4052;DHT22;2040;50.924;11.604;2023-04-25T15:49:58;10.10;99.90
4052;DHT22;2040;50.924;11.604;2023-04-25T15:52:23;10.00;99.90
4052;DHT22;2040;50.924;11.604;2023-04-25T15:54:49;9.80;99.90
4052;DHT22;2040;50.924;11.604;2023-04-25T15:57:14;9.60;99.90
4052;DHT22;2040;50.924;11.604;2023-04-25T15:59:40;9.40;99.90
4052;DHT22;2040;50.924;11.604;2023-04-25T16:02:06;9.40;99.90
4052;DHT22;2040;50.924;11.604;2023-04-25T16:04:32;9.60;99.90
4052;DHT22;2040;50.924;11.604;2023-04-25T16:07:02;10.10;99.90
4052;DHT22;2040;50.924;11.604;2023-04-25T16:09:28;10.80;99.90
4052;DHT22;2040;50.924;11.604;2023-04-25T16:11:54;11.20;99.90
4052;DHT22;2040;50.924;11.604;2023-04-25T16:14:19;11.40;99.90
4052;DHT22;2040;50.924;11.604;2023-04-25T16:16:45;11.50;99.90
4052;DHT22;2040;50.924;11.604;2023-04-25T16:19:11;11.40;99.90
4052;DHT22;2040;50.924;11.604;2023-04-25T16:21:36;11.50;99.90
4052;DHT22;2040;50.924;11.604;2023-04-25T16:24:02;11.40;99.90
4052;DHT22;2040;50.924;11.604;2023-04-25T16:26:28;11.30;99.90